Time;durP1;ratioP1;P1;durP2;ratioP2;P2;SDS_P1;SDS_P2;PMS_P1;PMS_P2;Temp;Humidity;BMP_temperature;BMP_pressure;BME280_temperature;BME280_humidity;BME280_pressure;Samples;Min_cycle;Max_cycle;Signal;HPM_P1;HPM_P2
2022/07/22 00:01:22;;;;;;;12.80;1.45;;;15.00;99.90;;;;;;5013419;28;20040;-68
2022/07/22 00:03:49;;;;;;;11.23;2.25;;;15.10;99.90;;;;;;5008816;28;20445;-69
2022/07/22 00:06:17;;;;;;;8.82;1.45;;;15.30;99.90;;;;;;5011843;28;20033;-68
2022/07/22 00:08:44;;;;;;;16.35;1.30;;;15.40;99.90;;;;;;5012276;28;20038;-68
2022/07/22 00:11:11;;;;;;;12.32;2.28;;;15.50;99.90;;;;;;5013848;28;20485;-68
2022/07/22 00:13:39;;;;;;;10.40;1.13;;;15.70;99.90;;;;;;5013696;28;20038;-68
2022/07/22 00:16:06;;;;;;;7.53;1.17;;;15.90;99.90;;;;;;5013851;28;20034;-68
2022/07/22 00:18:34;;;;;;;3.35;0.40;;;16.30;99.90;;;;;;5014362;28;20037;-68
2022/07/22 00:21:01;;;;;;;13.30;1.77;;;16.50;99.90;;;;;;5013563;28;20490;-68
2022/07/22 00:23:28;;;;;;;7.57;1.58;;;16.70;99.90;;;;;;4998029;28;20061;-68
2022/07/22 00:25:56;;;;;;;6.15;0.50;;;16.90;99.90;;;;;;4990705;28;20104;-67
2022/07/22 00:28:23;;;;;;;11.88;1.48;;;16.90;99.90;;;;;;5012158;28;20041;-68
2022/07/22 00:30:50;;;;;;;4.70;0.60;;;16.90;99.90;;;;;;5012985;28;20030;-68
2022/07/22 00:33:18;;;;;;;7.57;1.10;;;17.00;99.90;;;;;;5014178;28;20030;-68
2022/07/22 00:35:45;;;;;;;4.40;0.50;;;17.10;99.90;;;;;;5012570;28;20060;-68
2022/07/22 00:38:12;;;;;;;5.18;0.88;;;17.30;99.90;;;;;;5013895;28;20441;-68
2022/07/22 00:40:39;;;;;;;10.00;0.93;;;17.20;99.90;;;;;;5005181;28;20042;-68
2022/07/22 00:43:07;;;;;;;8.60;1.00;;;17.30;99.90;;;;;;4997831;28;20038;-68
2022/07/22 00:45:34;;;;;;;9.48;1.20;;;17.30;99.90;;;;;;5003489;28;20085;-69
2022/07/22 00:48:02;;;;;;;9.77;1.65;;;17.50;99.90;;;;;;5011175;28;20045;-68
2022/07/22 00:50:29;;;;;;;7.95;1.02;;;17.70;99.90;;;;;;4992249;28;20482;-69
2022/07/22 00:52:57;;;;;;;6.55;0.90;;;17.50;99.90;;;;;;5006986;28;20037;-69
2022/07/22 00:55:24;;;;;;;11.95;1.50;;;17.50;99.90;;;;;;5010171;28;20584;-68
2022/07/22 00:57:51;;;;;;;9.52;1.17;;;17.30;99.90;;;;;;4992883;28;20468;-69
2022/07/22 01:00:21;;;;;;;6.90;0.73;;;17.10;99.90;;;;;;5008465;28;20038;-69
2022/07/22 01:02:48;;;;;;;12.68;1.05;;;17.00;99.90;;;;;;5008684;28;20097;-68
2022/07/22 01:05:15;;;;;;;6.15;1.45;;;17.20;99.90;;;;;;5010377;28;20108;-68
2022/07/22 01:07:43;;;;;;;9.82;0.90;;;17.30;99.90;;;;;;5007214;28;20038;-68
2022/07/22 01:10:10;;;;;;;11.98;1.35;;;17.30;99.90;;;;;;5009794;28;20117;-69
2022/07/22 01:12:38;;;;;;;11.05;1.50;;;17.30;99.90;;;;;;5007187;28;20034;-69
2022/07/22 01:15:06;;;;;;;5.30;0.68;;;17.40;99.90;;;;;;5009680;28;20080;-69
2022/07/22 01:17:33;;;;;;;10.55;1.10;;;17.40;99.90;;;;;;5005422;28;20037;-68
2022/07/22 01:20:08;;;;;;;8.95;0.95;;;17.10;99.90;;;;;;5007058;28;20637;-68
2022/07/22 01:22:38;;;;;;;6.10;0.75;;;17.30;99.90;;;;;;5011507;28;20042;-68
2022/07/22 01:25:05;;;;;;;5.53;0.70;;;17.40;99.90;;;;;;5003706;28;20136;-68
2022/07/22 01:27:33;;;;;;;9.43;1.02;;;17.50;99.90;;;;;;5013098;28;20096;-68
2022/07/22 01:30:00;;;;;;;7.28;1.08;;;17.40;99.90;;;;;;5013654;28;20042;-68
2022/07/22 01:32:27;;;;;;;13.32;1.55;;;17.10;99.90;;;;;;5007226;28;20030;-68
2022/07/22 01:34:54;;;;;;;11.80;1.85;;;17.00;99.90;;;;;;5005527;28;20529;-68
2022/07/22 01:37:22;;;;;;;8.73;0.95;;;16.90;99.90;;;;;;5003519;28;21977;-67
2022/07/22 01:39:50;;;;;;;17.50;2.30;;;17.00;99.90;;;;;;5011617;28;20037;-68
2022/07/22 01:42:17;;;;;;;17.42;1.35;;;17.00;99.90;;;;;;5011081;28;20115;-68
2022/07/22 01:44:44;;;;;;;7.18;1.40;;;17.10;99.90;;;;;;5007859;28;20042;-68
2022/07/22 01:47:12;;;;;;;5.20;0.90;;;17.30;99.90;;;;;;5006281;28;20030;-68
2022/07/22 01:49:39;;;;;;;11.10;1.00;;;17.00;99.90;;;;;;5010288;28;20115;-68
2022/07/22 01:52:07;;;;;;;11.48;1.15;;;16.80;99.90;;;;;;5009028;28;20038;-68
2022/07/22 01:54:34;;;;;;;8.15;1.00;;;16.70;99.90;;;;;;5003808;28;20398;-69
2022/07/22 01:57:03;;;;;;;7.13;1.52;;;16.60;99.90;;;;;;5009073;28;20029;-66
2022/07/22 01:59:30;;;;;;;8.05;1.83;;;16.60;99.90;;;;;;5013446;28;20515;-68
2022/07/22 02:01:57;;;;;;;10.63;1.55;;;16.30;99.90;;;;;;5007248;28;20239;-68
2022/07/22 02:04:24;;;;;;;7.95;0.68;;;16.40;99.90;;;;;;5010856;28;20034;-68
2022/07/22 02:06:52;;;;;;;12.27;1.33;;;16.50;99.90;;;;;;5008555;28;20049;-68
2022/07/22 02:09:19;;;;;;;8.40;1.42;;;16.60;99.90;;;;;;5003363;28;20038;-68
2022/07/22 02:11:46;;;;;;;10.57;1.52;;;16.90;99.90;;;;;;5004097;28;20093;-69
2022/07/22 02:14:13;;;;;;;8.38;1.60;;;17.20;99.90;;;;;;5009476;28;20061;-69
2022/07/22 02:16:41;;;;;;;5.45;1.02;;;16.80;99.90;;;;;;5007766;28;20030;-69
2022/07/22 02:19:08;;;;;;;9.60;1.10;;;16.80;99.90;;;;;;5002022;28;20042;-70
2022/07/22 02:21:36;;;;;;;4.05;0.70;;;17.70;99.90;;;;;;5006802;28;20038;-69
2022/07/22 02:24:03;;;;;;;5.80;0.70;;;18.40;99.90;;;;;;5002184;28;20168;-69
2022/07/22 02:26:31;;;;;;;6.55;0.50;;;18.90;99.90;;;;;;5003985;28;20041;-69
2022/07/22 02:28:59;;;;;;;4.63;0.90;;;18.30;99.90;;;;;;5007656;28;20029;-69
2022/07/22 02:31:26;;;;;;;12.18;1.50;;;17.60;99.90;;;;;;5000855;28;20037;-68
2022/07/22 02:33:54;;;;;;;7.45;0.90;;;17.20;99.90;;;;;;4999219;28;20030;-70
2022/07/22 02:36:21;;;;;;;10.50;1.15;;;16.90;99.90;;;;;;4993933;28;20513;-69
2022/07/22 02:38:48;;;;;;;7.60;0.93;;;16.50;99.90;;;;;;5003511;28;20669;-70
2022/07/22 02:41:16;;;;;;;10.73;0.95;;;16.20;99.90;;;;;;5002348;28;20042;-70
2022/07/22 02:43:43;;;;;;;8.60;1.20;;;16.20;99.90;;;;;;5001121;28;20109;-70
2022/07/22 02:46:10;;;;;;;7.78;1.27;;;16.00;99.90;;;;;;5009266;28;20038;-69
2022/07/22 02:48:37;;;;;;;11.20;1.73;;;15.30;99.90;;;;;;5008419;28;20041;-69
2022/07/22 02:51:05;;;;;;;11.57;1.70;;;15.00;99.90;;;;;;5006668;28;20529;-69
2022/07/22 02:53:32;;;;;;;12.25;1.33;;;14.90;99.90;;;;;;5000541;28;20060;-69
2022/07/22 02:55:59;;;;;;;14.43;1.42;;;14.80;99.90;;;;;;5000075;28;20038;-69
2022/07/22 02:58:27;;;;;;;14.32;1.50;;;14.80;99.90;;;;;;5008405;28;20117;-70
2022/07/22 03:00:54;;;;;;;11.25;1.00;;;14.90;99.90;;;;;;4988218;28;20578;-70
2022/07/22 03:03:21;;;;;;;10.75;1.33;;;14.80;99.90;;;;;;5005627;28;20487;-69
2022/07/22 03:05:49;;;;;;;7.47;1.00;;;14.90;99.90;;;;;;5007988;28;20033;-70
2022/07/22 03:08:16;;;;;;;7.57;1.52;;;14.90;99.90;;;;;;5010469;28;20026;-70
2022/07/22 03:10:44;;;;;;;11.13;1.42;;;14.70;99.90;;;;;;4995247;28;20118;-69
2022/07/22 03:13:11;;;;;;;8.43;1.88;;;14.60;99.90;;;;;;5011209;28;20430;-69
2022/07/22 03:15:38;;;;;;;9.93;1.38;;;14.50;99.90;;;;;;5005319;28;20046;-70
2022/07/22 03:18:06;;;;;;;13.90;1.92;;;14.40;99.90;;;;;;5006134;28;20065;-69
2022/07/22 03:20:33;;;;;;;10.95;1.05;;;14.50;99.90;;;;;;5005814;28;20406;-69
2022/07/22 03:23:01;;;;;;;9.73;1.52;;;14.50;99.90;;;;;;5009562;28;20403;-69
2022/07/22 03:25:30;;;;;;;16.02;2.25;;;14.40;99.90;;;;;;5007083;28;20041;-69
2022/07/22 03:27:58;;;;;;;10.40;1.13;;;14.40;99.90;;;;;;5010947;28;20037;-69
2022/07/22 03:30:25;;;;;;;11.35;1.58;;;14.40;99.90;;;;;;5013852;28;20036;-69
2022/07/22 03:32:52;;;;;;;8.88;1.35;;;14.40;99.90;;;;;;5009199;28;20034;-69
2022/07/22 03:35:20;;;;;;;9.38;1.10;;;14.50;99.90;;;;;;5010017;28;20056;-69
2022/07/22 03:37:47;;;;;;;9.73;0.88;;;14.50;99.90;;;;;;5013888;28;20033;-69
2022/07/22 03:40:15;;;;;;;11.55;1.45;;;14.50;99.90;;;;;;5012187;28;20048;-69
2022/07/22 03:42:42;;;;;;;9.43;1.58;;;14.50;99.90;;;;;;5006381;28;20049;-69
2022/07/22 03:45:10;;;;;;;8.43;1.27;;;14.90;99.90;;;;;;5007417;28;20050;-69
2022/07/22 03:47:38;;;;;;;5.10;1.02;;;15.30;99.90;;;;;;5008258;28;20049;-69
2022/07/22 03:50:06;;;;;;;9.38;1.88;;;15.40;99.90;;;;;;5005445;28;20483;-69
2022/07/22 03:52:33;;;;;;;11.88;1.90;;;15.30;99.90;;;;;;5007751;28;20046;-69
2022/07/22 03:55:01;;;;;;;7.32;1.67;;;15.00;99.90;;;;;;5007549;28;20504;-69
2022/07/22 03:57:29;;;;;;;11.60;2.53;;;15.00;99.90;;;;;;5006110;28;20093;-69
2022/07/22 03:59:56;;;;;;;9.88;1.30;;;15.10;99.90;;;;;;5009136;28;20027;-69
2022/07/22 04:02:23;;;;;;;9.98;0.88;;;15.00;99.90;;;;;;5007285;28;20034;-69
2022/07/22 04:04:50;;;;;;;9.40;0.90;;;14.90;99.90;;;;;;5009189;28;20113;-69
2022/07/22 04:07:18;;;;;;;18.08;1.27;;;15.00;99.90;;;;;;5004475;28;20034;-69
2022/07/22 04:09:45;;;;;;;7.55;1.23;;;14.80;99.90;;;;;;5009935;28;20041;-69
2022/07/22 04:12:12;;;;;;;15.10;1.85;;;14.70;99.90;;;;;;5011494;28;20080;-69
2022/07/22 04:14:39;;;;;;;12.15;1.95;;;14.70;99.90;;;;;;5009052;28;20030;-69
2022/07/22 04:17:07;;;;;;;10.80;2.47;;;14.70;99.90;;;;;;5010466;28;20097;-69
2022/07/22 04:19:34;;;;;;;13.43;2.03;;;14.70;99.90;;;;;;5010356;28;20026;-69
2022/07/22 04:22:01;;;;;;;10.68;2.65;;;14.70;99.90;;;;;;5006505;28;20042;-69
2022/07/22 04:24:28;;;;;;;13.95;2.40;;;14.80;99.90;;;;;;5004932;28;20053;-69
2022/07/22 04:26:56;;;;;;;15.90;1.95;;;14.90;99.90;;;;;;5004486;28;20037;-69
2022/07/22 04:29:23;;;;;;;8.15;1.17;;;14.90;99.90;;;;;;5012506;28;20041;-69
2022/07/22 04:31:50;;;;;;;18.17;2.25;;;14.90;99.90;;;;;;5010643;28;20030;-69
2022/07/22 04:34:18;;;;;;;11.95;1.95;;;14.80;99.90;;;;;;5004347;28;20048;-69
2022/07/22 04:36:47;;;;;;;12.30;2.20;;;14.60;99.90;;;;;;5016617;28;20052;-68
2022/07/22 04:39:14;;;;;;;16.20;2.33;;;14.50;99.90;;;;;;5027682;28;20946;-68
2022/07/22 04:41:41;;;;;;;12.80;2.40;;;14.30;99.90;;;;;;5027328;28;20082;-68
2022/07/22 04:44:09;;;;;;;12.55;1.58;;;14.20;99.90;;;;;;5029122;28;20042;-68
2022/07/22 04:46:36;;;;;;;18.75;1.98;;;14.10;99.90;;;;;;5025698;28;20023;-68
2022/07/22 04:49:03;;;;;;;10.50;1.60;;;14.00;99.90;;;;;;5025281;28;20038;-68
2022/07/22 04:51:31;;;;;;;10.57;2.47;;;13.90;99.90;;;;;;5020223;28;20037;-68
2022/07/22 04:53:58;;;;;;;12.32;1.25;;;14.00;99.90;;;;;;5018413;28;20034;-68
2022/07/22 04:56:25;;;;;;;8.93;1.13;;;13.90;99.90;;;;;;5029287;28;20042;-68
2022/07/22 04:58:52;;;;;;;17.42;2.40;;;14.00;99.90;;;;;;5028347;28;20033;-69
2022/07/22 05:01:20;;;;;;;13.23;1.40;;;14.00;99.90;;;;;;5027355;28;20052;-67
2022/07/22 05:03:47;;;;;;;15.82;2.13;;;14.00;99.90;;;;;;5025167;28;20053;-69
2022/07/22 05:06:14;;;;;;;14.55;2.22;;;14.00;99.90;;;;;;5029721;28;20061;-68
2022/07/22 05:08:42;;;;;;;19.23;1.50;;;14.10;99.90;;;;;;5026655;28;20034;-69
2022/07/22 05:11:09;;;;;;;16.48;2.42;;;14.20;99.90;;;;;;5028993;28;20050;-69
2022/07/22 05:13:36;;;;;;;15.80;1.70;;;14.20;99.90;;;;;;5029195;28;20033;-69
2022/07/22 05:16:05;;;;;;;13.73;2.20;;;14.20;99.90;;;;;;5025570;28;20046;-69
2022/07/22 05:18:33;;;;;;;13.18;1.40;;;14.30;99.90;;;;;;5021529;28;20053;-69
2022/07/22 05:21:01;;;;;;;17.83;1.70;;;14.30;99.90;;;;;;5018410;28;20089;-69
2022/07/22 05:23:28;;;;;;;22.23;3.75;;;14.40;99.90;;;;;;5025796;28;20064;-69
2022/07/22 05:25:55;;;;;;;15.80;1.90;;;14.30;99.90;;;;;;5023435;28;20040;-69
2022/07/22 05:28:24;;;;;;;20.92;3.85;;;14.40;99.90;;;;;;5014509;28;20034;-69
2022/07/22 05:30:51;;;;;;;16.98;2.42;;;14.30;99.90;;;;;;5022915;28;20061;-69
2022/07/22 05:33:18;;;;;;;16.63;3.15;;;14.40;99.90;;;;;;5027047;28;20041;-69
2022/07/22 05:35:45;;;;;;;6.35;1.83;;;14.50;99.90;;;;;;5031881;28;20041;-69
2022/07/22 05:38:13;;;;;;;20.92;2.53;;;14.60;99.90;;;;;;5030710;28;20132;-69
2022/07/22 05:40:40;;;;;;;9.88;1.88;;;14.70;99.90;;;;;;5025815;28;20041;-69
2022/07/22 05:43:08;;;;;;;12.40;1.67;;;14.80;99.90;;;;;;5030328;28;20038;-68
2022/07/22 05:45:35;;;;;;;11.38;2.08;;;14.90;99.90;;;;;;5016877;28;20045;-67
2022/07/22 05:48:03;;;;;;;10.68;1.30;;;15.00;99.90;;;;;;5017565;28;20072;-67
2022/07/22 05:50:30;;;;;;;11.38;2.15;;;14.90;99.90;;;;;;5009432;28;20030;-67
2022/07/22 05:52:57;;;;;;;18.38;3.38;;;14.70;99.90;;;;;;5020370;28;20038;-67
2022/07/22 05:55:25;;;;;;;15.25;1.98;;;14.50;99.90;;;;;;5027019;28;20136;-66
2022/07/22 05:57:52;;;;;;;12.68;1.15;;;14.30;99.90;;;;;;5025795;28;20035;-66
2022/07/22 06:00:19;;;;;;;12.45;1.50;;;14.30;99.90;;;;;;5026795;28;20038;-67
2022/07/22 06:02:46;;;;;;;20.25;2.22;;;14.20;99.90;;;;;;5033895;28;20149;-66
2022/07/22 06:05:14;;;;;;;16.02;2.22;;;14.20;99.90;;;;;;5034547;28;20018;-66
2022/07/22 06:07:41;;;;;;;15.55;2.30;;;14.20;99.90;;;;;;5036555;28;20022;-66
2022/07/22 06:10:09;;;;;;;14.90;2.30;;;14.20;99.90;;;;;;5034486;28;20042;-67
2022/07/22 06:12:36;;;;;;;12.95;2.03;;;14.10;99.90;;;;;;5035234;28;20018;-67
2022/07/22 06:15:05;;;;;;;23.00;2.00;;;14.10;99.90;;;;;;5036580;28;20041;-66
2022/07/22 06:17:32;;;;;;;13.40;1.95;;;14.00;99.90;;;;;;5026692;28;20031;-67
2022/07/22 06:19:59;;;;;;;9.95;1.85;;;14.00;99.90;;;;;;5034482;28;20093;-67
2022/07/22 06:22:27;;;;;;;8.63;1.10;;;14.10;99.90;;;;;;5034346;28;20046;-67
2022/07/22 06:24:54;;;;;;;12.25;1.75;;;14.20;99.90;;;;;;5035173;28;20021;-67
2022/07/22 06:27:21;;;;;;;10.15;1.38;;;14.30;99.90;;;;;;5030511;28;20033;-67
2022/07/22 06:29:48;;;;;;;11.70;1.98;;;14.30;99.90;;;;;;5028277;28;20057;-67
2022/07/22 06:32:16;;;;;;;9.02;1.52;;;14.30;99.90;;;;;;5034981;28;20032;-67
2022/07/22 06:34:43;;;;;;;13.43;1.73;;;14.20;99.90;;;;;;5030687;28;20098;-67
2022/07/22 06:37:10;;;;;;;9.43;1.25;;;14.20;99.90;;;;;;5034094;28;20041;-67
2022/07/22 06:39:37;;;;;;;9.25;1.33;;;14.20;99.90;;;;;;5035933;28;20026;-67
2022/07/22 06:42:05;;;;;;;7.95;0.82;;;14.20;99.90;;;;;;5036267;28;20049;-67
2022/07/22 06:44:32;;;;;;;7.07;1.73;;;14.20;99.90;;;;;;5032677;28;20097;-67
2022/07/22 06:46:59;;;;;;;13.15;1.90;;;14.20;99.90;;;;;;5028251;28;20029;-67
2022/07/22 06:49:27;;;;;;;6.90;1.08;;;14.30;99.90;;;;;;5021756;28;20035;-67
2022/07/22 06:51:54;;;;;;;7.00;0.80;;;14.50;99.90;;;;;;5029171;28;20037;-67
2022/07/22 06:54:21;;;;;;;9.20;0.90;;;14.50;99.90;;;;;;5027711;28;20050;-68
2022/07/22 06:56:49;;;;;;;11.45;1.40;;;14.50;99.90;;;;;;5031492;28;20026;-68
2022/07/22 06:59:16;;;;;;;14.50;1.92;;;14.40;99.90;;;;;;5014904;28;20026;-68
2022/07/22 07:01:43;;;;;;;10.77;1.35;;;14.40;99.90;;;;;;5027552;28;20030;-68
2022/07/22 07:04:10;;;;;;;14.60;1.58;;;14.30;99.90;;;;;;5033152;28;20086;-68
2022/07/22 07:06:38;;;;;;;9.25;1.33;;;14.30;99.90;;;;;;5032038;28;20126;-68
2022/07/22 07:09:05;;;;;;;11.07;2.38;;;14.30;99.90;;;;;;5034460;28;20013;-68
2022/07/22 07:11:32;;;;;;;9.05;1.10;;;14.30;99.90;;;;;;5030900;28;20065;-67
2022/07/22 07:13:59;;;;;;;8.65;1.48;;;14.30;99.90;;;;;;5034087;28;20045;-68
2022/07/22 07:16:27;;;;;;;12.95;1.65;;;14.30;99.90;;;;;;5034207;28;20045;-68
2022/07/22 07:18:54;;;;;;;8.68;1.35;;;14.30;99.90;;;;;;5034294;28;20026;-68
2022/07/22 07:21:22;;;;;;;5.07;0.55;;;14.20;99.90;;;;;;5035345;28;20038;-68
2022/07/22 07:23:49;;;;;;;14.27;1.20;;;14.20;99.90;;;;;;5037803;28;20053;-68
2022/07/22 07:26:16;;;;;;;7.25;0.93;;;14.20;99.90;;;;;;5036942;28;20049;-69
2022/07/22 07:28:44;;;;;;;8.68;0.85;;;14.10;99.90;;;;;;5030535;28;20010;-68
2022/07/22 07:31:12;;;;;;;13.57;1.45;;;14.10;99.90;;;;;;5025954;28;20042;-67
2022/07/22 07:33:39;;;;;;;10.52;1.10;;;14.00;99.90;;;;;;5036424;28;20030;-68
2022/07/22 07:36:06;;;;;;;8.57;1.70;;;13.90;99.90;;;;;;5039491;28;20034;-67
2022/07/22 07:38:34;;;;;;;10.45;1.23;;;13.90;99.90;;;;;;5031341;28;20049;-67
2022/07/22 07:41:01;;;;;;;10.45;1.33;;;13.80;99.90;;;;;;5039668;28;20105;-68
2022/07/22 07:43:28;;;;;;;9.98;2.03;;;13.80;99.90;;;;;;5039517;28;20049;-67
2022/07/22 07:45:56;;;;;;;16.02;2.42;;;13.80;99.90;;;;;;5039151;28;20089;-68
2022/07/22 07:48:23;;;;;;;9.43;1.35;;;13.80;99.90;;;;;;5032228;28;20029;-67
2022/07/22 07:50:50;;;;;;;8.52;0.80;;;13.70;99.90;;;;;;5038594;28;20018;-68
2022/07/22 07:53:18;;;;;;;11.90;1.30;;;13.80;99.90;;;;;;5035202;28;20038;-68
2022/07/22 07:55:46;;;;;;;4.75;0.80;;;13.90;99.90;;;;;;5036841;28;20084;-68
2022/07/22 07:58:13;;;;;;;9.77;1.63;;;13.90;99.90;;;;;;5039264;28;20061;-69
2022/07/22 08:00:42;;;;;;;9.15;1.15;;;13.90;99.90;;;;;;5036787;28;20065;-68
2022/07/22 08:03:09;;;;;;;7.93;1.35;;;13.90;99.90;;;;;;5039229;28;20026;-68
2022/07/22 08:05:40;;;;;;;7.60;1.02;;;13.90;99.90;;;;;;5035225;28;20501;-70
2022/07/22 08:08:08;;;;;;;10.45;1.17;;;14.00;99.90;;;;;;5034233;28;20029;-68
2022/07/22 08:10:35;;;;;;;6.38;1.20;;;13.90;99.90;;;;;;5036617;28;20061;-67
2022/07/22 08:13:03;;;;;;;7.93;1.00;;;13.80;99.90;;;;;;5033696;28;20035;-68
2022/07/22 08:15:31;;;;;;;9.77;1.10;;;13.80;99.90;;;;;;5016867;28;20097;-68
2022/07/22 08:17:59;;;;;;;8.82;1.40;;;13.80;99.90;;;;;;5038553;28;20085;-68
2022/07/22 08:20:27;;;;;;;10.15;1.38;;;13.70;99.90;;;;;;5027345;28;20043;-69
2022/07/22 08:22:58;;;;;;;8.48;2.47;;;13.70;99.90;;;;;;5038897;28;20018;-68
2022/07/22 08:25:25;;;;;;;8.80;1.25;;;13.80;99.90;;;;;;5049382;28;20059;-68
2022/07/22 08:27:53;;;;;;;10.02;1.33;;;13.80;99.90;;;;;;5042995;28;20043;-68
2022/07/22 08:30:23;;;;;;;11.05;1.60;;;13.80;99.90;;;;;;5038362;28;20033;-68
2022/07/22 08:32:50;;;;;;;10.73;1.40;;;13.80;99.90;;;;;;5036668;28;20041;-68
2022/07/22 08:35:18;;;;;;;11.30;1.63;;;13.80;99.90;;;;;;5029263;28;20069;-68
2022/07/22 08:37:47;;;;;;;8.60;1.52;;;13.80;99.90;;;;;;5039753;28;20033;-68
2022/07/22 08:40:16;;;;;;;12.10;1.77;;;13.90;99.90;;;;;;5029869;28;20018;-70
2022/07/22 08:42:46;;;;;;;9.13;1.85;;;13.90;99.90;;;;;;5027772;28;20033;-70
2022/07/22 08:45:15;;;;;;;10.95;2.13;;;13.90;99.90;;;;;;5035530;28;20038;-69
2022/07/22 08:47:46;;;;;;;9.43;1.88;;;13.90;99.90;;;;;;5053944;28;20129;-70
2022/07/22 08:50:13;;;;;;;14.32;2.55;;;13.90;99.90;;;;;;5024261;28;20053;-70
2022/07/22 08:52:41;;;;;;;10.82;2.42;;;14.00;99.90;;;;;;5036358;28;20010;-69
2022/07/22 08:55:09;;;;;;;12.07;2.35;;;14.00;99.90;;;;;;5031416;28;20037;-70
2022/07/22 08:57:39;;;;;;;8.77;2.03;;;14.10;99.90;;;;;;5031669;28;20037;-70
2022/07/22 09:00:12;;;;;;;7.75;1.02;;;14.10;99.90;;;;;;5039665;28;20081;-70
2022/07/22 09:02:41;;;;;;;6.90;0.75;;;14.00;99.90;;;;;;5023467;28;20042;-69
2022/07/22 09:05:14;;;;;;;13.48;1.48;;;14.10;99.90;;;;;;5045200;28;20069;-70
2022/07/22 09:07:43;;;;;;;5.28;1.25;;;14.10;99.90;;;;;;5053208;28;20034;-70
2022/07/22 09:10:14;;;;;;;6.50;1.10;;;14.10;99.90;;;;;;5034107;28;20014;-69
2022/07/22 09:12:59;;;;;;;6.85;1.40;;;14.00;99.90;;;;;;5045099;28;20041;-69
2022/07/22 09:15:40;;;;;;;9.13;1.45;;;14.00;99.90;;;;;;5041725;28;20034;-69
2022/07/22 09:18:08;;;;;;;6.05;1.13;;;13.90;99.90;;;;;;5039715;28;20068;-69
2022/07/22 09:20:37;;;;;;;10.13;3.53;;;13.90;99.90;;;;;;5035473;28;20026;-69
2022/07/22 09:23:17;;;;;;;7.07;1.90;;;13.90;99.90;;;;;;5043787;28;20045;-70
2022/07/22 09:25:44;;;;;;;4.70;1.50;;;13.90;99.90;;;;;;5024163;28;20026;-70
2022/07/22 09:28:14;;;;;;;9.10;3.78;;;13.90;99.90;;;;;;5038528;28;20029;-69
2022/07/22 09:30:48;;;;;;;15.43;10.48;;;13.90;99.90;;;;;;5035671;28;20026;-69
2022/07/22 09:33:16;;;;;;;7.88;4.25;;;13.90;99.90;;;;;;5029357;28;20042;-70
2022/07/22 09:35:44;;;;;;;24.85;18.30;;;13.90;99.90;;;;;;5038760;28;20049;-69
2022/07/22 09:38:13;;;;;;;14.60;8.25;;;13.90;99.90;;;;;;5041072;28;20028;-69
2022/07/22 09:40:44;;;;;;;12.60;3.53;;;13.90;99.90;;;;;;5042523;28;20038;-69
2022/07/22 09:43:16;;;;;;;9.60;1.67;;;13.90;99.90;;;;;;5020306;28;20044;-69
2022/07/22 09:45:57;;;;;;;7.35;1.25;;;13.80;99.90;;;;;;5046364;28;20037;-68
2022/07/22 09:48:25;;;;;;;10.40;1.70;;;13.80;99.90;;;;;;5027894;28;20013;-69
2022/07/22 09:50:55;;;;;;;8.23;1.52;;;13.90;99.90;;;;;;5040359;28;20056;-69
2022/07/22 09:53:30;;;;;;;11.82;1.80;;;13.80;99.90;;;;;;5032160;28;20026;-68
2022/07/22 09:55:59;;;;;;;10.75;1.45;;;13.90;99.90;;;;;;5033356;28;20038;-68
2022/07/22 09:58:27;;;;;;;9.30;1.45;;;13.90;99.90;;;;;;5044184;28;20056;-68
2022/07/22 10:00:57;;;;;;;8.65;1.45;;;14.00;99.90;;;;;;5017646;28;20022;-68
2022/07/22 10:03:28;;;;;;;8.15;1.60;;;13.90;99.90;;;;;;5041420;28;20026;-68
2022/07/22 10:05:56;;;;;;;11.60;2.50;;;13.90;99.90;;;;;;5039201;28;20014;-68
2022/07/22 10:08:28;;;;;;;17.63;3.42;;;13.80;99.90;;;;;;5039072;28;20029;-68
2022/07/22 10:11:04;;;;;;;11.77;2.53;;;13.80;99.90;;;;;;5029737;28;20041;-68
2022/07/22 10:13:34;;;;;;;8.98;2.60;;;13.80;99.90;;;;;;5029267;28;20046;-68
2022/07/22 10:16:02;;;;;;;10.45;3.25;;;13.90;99.90;;;;;;5039013;28;20053;-68
2022/07/22 10:18:30;;;;;;;15.05;2.58;;;13.80;99.90;;;;;;5051587;28;20042;-69
2022/07/22 10:21:10;;;;;;;9.65;0.80;;;13.80;99.90;;;;;;5034173;28;20014;-68
2022/07/22 10:24:10;;;;;;;7.80;1.60;;;13.80;99.90;;;;;;5052378;28;20064;-68
2022/07/22 10:26:55;;;;;;;4.45;1.80;;;13.80;99.90;;;;;;5036032;28;20033;-68
2022/07/22 10:29:26;;;;;;;11.48;1.67;;;13.80;99.90;;;;;;5038097;28;20027;-68
2022/07/22 10:32:21;;;;;;;6.18;1.00;;;13.70;99.90;;;;;;5041101;28;20045;-68
2022/07/22 10:35:06;;;;;;;7.97;1.50;;;13.60;99.90;;;;;;5035874;28;20037;-68
2022/07/22 10:37:43;;;;;;;9.93;1.35;;;13.60;99.90;;;;;;5038421;28;20062;-68
2022/07/22 10:40:26;;;;;;;9.60;1.20;;;13.60;99.90;;;;;;5044108;28;20030;-67
2022/07/22 10:43:07;;;;;;;9.38;1.63;;;13.60;99.90;;;;;;5036695;28;20029;-67
2022/07/22 10:45:43;;;;;;;13.20;2.05;;;13.60;99.90;;;;;;5031157;28;20057;-67
2022/07/22 10:48:12;;;;;;;12.23;2.15;;;13.50;99.90;;;;;;5057702;28;20044;-68
2022/07/22 10:50:42;;;;;;;11.75;3.63;;;13.50;99.90;;;;;;5039101;28;20041;-68
2022/07/22 10:53:15;;;;;;;13.75;2.63;;;13.50;99.90;;;;;;5043781;28;20022;-69
2022/07/22 10:56:05;;;;;;;8.77;1.70;;;13.50;99.90;;;;;;5030522;28;20042;-69
2022/07/22 10:58:36;;;;;;;17.55;2.80;;;13.40;99.90;;;;;;5032574;28;20045;-67
2022/07/22 11:01:06;;;;;;;12.57;2.67;;;13.40;99.90;;;;;;5040147;28;20149;-68
2022/07/22 11:03:35;;;;;;;11.93;1.70;;;13.40;99.90;;;;;;5044700;28;20049;-67
2022/07/22 11:06:29;;;;;;;12.45;2.38;;;13.50;99.90;;;;;;5042074;28;20022;-68
2022/07/22 11:08:59;;;;;;;14.90;4.78;;;13.40;99.90;;;;;;5050638;28;20054;-68
2022/07/22 11:11:34;;;;;;;9.45;3.03;;;13.30;99.90;;;;;;5039523;28;20073;-68
2022/07/22 11:14:01;;;;;;;12.18;4.53;;;13.30;99.90;;;;;;5056909;28;20029;-68
2022/07/22 11:16:29;;;;;;;15.10;7.80;;;13.30;99.90;;;;;;5033427;28;20022;-67
2022/07/22 11:19:01;;;;;;;10.02;2.63;;;13.40;99.90;;;;;;5032684;28;20065;-67
2022/07/22 11:21:30;;;;;;;12.13;1.85;;;13.30;99.90;;;;;;5037744;28;20105;-68
2022/07/22 11:24:01;;;;;;;8.48;1.70;;;13.30;99.90;;;;;;5050723;28;20033;-68
2022/07/22 11:26:43;;;;;;;7.82;2.03;;;13.20;99.90;;;;;;5035646;28;20077;-69
2022/07/22 11:29:33;;;;;;;6.03;1.25;;;13.10;99.90;;;;;;5048754;28;20046;-68
2022/07/22 11:32:02;;;;;;;8.05;1.95;;;13.10;99.90;;;;;;5043136;28;20046;-68
2022/07/22 11:34:29;;;;;;;7.20;1.63;;;13.10;99.90;;;;;;5021283;28;20181;-68
2022/07/22 11:36:58;;;;;;;6.78;1.20;;;13.10;99.90;;;;;;5043997;28;20025;-67
2022/07/22 11:39:28;;;;;;;8.02;1.67;;;13.10;99.90;;;;;;5054074;28;20022;-67
2022/07/22 11:41:58;;;;;;;5.80;0.85;;;13.10;99.90;;;;;;5039122;28;20038;-68
2022/07/22 11:44:27;;;;;;;9.52;1.23;;;13.10;99.90;;;;;;5045015;28;20041;-67
2022/07/22 11:46:58;;;;;;;5.65;1.17;;;13.10;99.90;;;;;;5035083;28;20018;-69
2022/07/22 11:49:31;;;;;;;6.53;1.45;;;13.10;99.90;;;;;;5043430;28;20026;-69
2022/07/22 11:52:00;;;;;;;9.30;0.98;;;13.10;99.90;;;;;;5041579;28;20097;-69
2022/07/22 11:54:27;;;;;;;9.07;0.98;;;13.10;99.90;;;;;;5043331;28;20034;-68
2022/07/22 11:56:56;;;;;;;5.90;1.23;;;13.10;99.90;;;;;;5038267;28;20073;-68
2022/07/22 11:59:23;;;;;;;7.35;1.08;;;13.10;99.90;;;;;;5038907;28;20026;-67
2022/07/22 12:01:52;;;;;;;4.82;1.17;;;13.20;99.90;;;;;;5042303;28;20017;-67
2022/07/22 12:04:25;;;;;;;7.00;1.05;;;13.30;99.90;;;;;;5046865;28;20029;-67
2022/07/22 12:06:57;;;;;;;13.77;3.20;;;13.30;99.90;;;;;;5046930;28;20074;-67
2022/07/22 12:09:28;;;;;;;10.20;2.17;;;13.30;99.90;;;;;;5039316;28;20053;-68
2022/07/22 12:11:58;;;;;;;5.15;1.17;;;14.00;99.90;;;;;;5034861;28;20018;-68
2022/07/22 12:14:30;;;;;;;5.82;1.25;;;13.80;99.90;;;;;;5031395;28;20044;-68
2022/07/22 12:17:10;;;;;;;7.30;1.40;;;13.60;99.90;;;;;;5053317;28;20077;-67
2022/07/22 12:19:39;;;;;;;7.45;1.42;;;13.30;99.90;;;;;;5038865;28;20090;-68
2022/07/22 12:22:24;;;;;;;5.78;1.50;;;13.40;99.90;;;;;;5036971;28;20106;-67
2022/07/22 12:25:02;;;;;;;7.20;2.03;;;13.40;99.90;;;;;;5048325;28;20025;-68
2022/07/22 12:27:30;;;;;;;6.25;1.42;;;13.50;99.90;;;;;;5036131;28;20035;-66
2022/07/22 12:29:57;;;;;;;5.40;1.70;;;13.40;99.90;;;;;;5042427;28;20033;-66
2022/07/22 12:32:25;;;;;;;5.47;1.52;;;13.50;99.90;;;;;;5031018;28;20022;-66
2022/07/22 12:35:03;;;;;;;9.65;1.63;;;13.40;99.90;;;;;;5030565;28;20064;-67
2022/07/22 12:37:45;;;;;;;11.20;2.40;;;13.40;99.90;;;;;;5034854;28;20052;-66
2022/07/22 12:40:21;;;;;;;7.07;2.08;;;13.40;99.90;;;;;;5036798;28;20018;-66
2022/07/22 12:43:05;;;;;;;8.73;1.55;;;13.40;99.90;;;;;;5035785;28;20045;-66
2022/07/22 12:45:37;;;;;;;13.77;2.70;;;13.30;99.90;;;;;;5015193;28;20026;-67
2022/07/22 12:48:05;;;;;;;8.02;1.52;;;13.20;99.90;;;;;;5034935;28;20023;-67
2022/07/22 12:50:44;;;;;;;8.23;1.20;;;13.30;99.90;;;;;;5033880;28;20033;-67
2022/07/22 12:53:16;;;;;;;9.48;1.70;;;13.70;99.90;;;;;;5033810;28;20065;-67